Gran Canaria, Spain
Current Conditions -  °F | °C
As of 8:00 PM on Sunday 25 Jan 2015 (Local Time) from GCLP Reporting Station
Broken Clouds Broken Clouds  
Wind Chill: 17°   Ceiling: 4500
Heat Index: 17°   Visibility: 6mi
Dew Point: 12°   Wind: 18mph
Humidity: 72%   Direction: 10°N
Pressure: 30.21"   Gusts: NA
Location:  28.14°N, 15.43°W
Report Text: GCLP 252000Z 01016KT 9999 FEW020 BKN045 17/12 Q1023 NOSIG
Loading
Personal Weather Stations






























Interactive Weather Map New forecast layout! Learn more

10-Day Weather Forecast

Advertisements
Track Severe Weather on mobile